Roland Colony, South Dakota
Current Conditions -  °F | °C
As of 11:54 PM on Monday 26 Jan 2015 (Local Time) from KCNB Reporting Station
Clear Clear  
Wind Chill: 31°   Ceiling: Unl
Heat Index: 31°   Visibility: 10mi
Dew Point: 30°   Wind: 3mph
Humidity: 96%   Direction: 330°NNW
Pressure: 30.05"   Gusts: NA
Location:  44.4253°N, 96.5963°W
Report Text: KCNB 270554Z AUTO 33003KT 10SM CLR M01/M01 A3005 RMK AO2 T10071012 10036 21009 400781009
Loading
Personal Weather Stations






























Interactive Weather Map New forecast layout! Learn more

10-Day Weather Forecast

Advertisements
Track Severe Weather on mobile